Auburndale, Florida
Current Conditions -  °F | °C
As of 12:53 PM on Thursday 30 Oct 2014 (Local Time) from KGIF Reporting Station
Broken Clouds Broken Clouds  
Wind Chill: 81°   Ceiling: 4300
Heat Index: 82°   Visibility: 10mi
Dew Point: 64°   Wind: 3mph
Humidity: 56%   Direction: NA
Pressure: 29.97"   Gusts: NA
Location:  28.06°N, 81.78°W
Report Text: KGIF 301653Z AUTO VRB03KT 10SM BKN043 27/18 A2997 RMK AO2 SLP146 T02720178
Loading
Personal Weather Stations






























Interactive Weather Map New forecast layout! Learn more

10-Day Weather Forecast

Advertisements
Track Severe Weather on mobile